createdAt,value
2022-12-29T00:01:44.867Z,8.41
2022-12-29T00:04:14.738Z,8.20
2022-12-29T00:06:41.769Z,8.56
2022-12-29T00:09:08.139Z,8.32
2022-12-29T00:11:34.495Z,8.33
2022-12-29T00:14:25.738Z,8.46
2022-12-29T00:16:52.577Z,8.57
2022-12-29T00:19:37.592Z,8.40
2022-12-29T00:22:22.474Z,8.43
2022-12-29T00:25:07.558Z,8.72
2022-12-29T00:27:52.380Z,8.53
2022-12-29T00:30:41.870Z,8.54
2022-12-29T00:33:27.189Z,8.66
2022-12-29T00:35:53.545Z,8.64
2022-12-29T00:38:38.771Z,8.51
2022-12-29T00:41:23.953Z,8.75
2022-12-29T00:44:11.057Z,8.78
2022-12-29T00:46:37.475Z,8.70
2022-12-29T00:49:24.125Z,8.75
2022-12-29T00:51:50.540Z,8.76
2022-12-29T00:54:16.891Z,8.70
2022-12-29T00:56:44.647Z,8.68
2022-12-29T00:59:11.012Z,8.63
2022-12-29T01:01:37.584Z,8.71
2022-12-29T01:04:04.776Z,8.71
2022-12-29T01:06:31.241Z,8.76
2022-12-29T01:09:16.160Z,8.80
2022-12-29T01:11:42.701Z,8.67
2022-12-29T01:14:09.076Z,8.83
2022-12-29T01:16:37.489Z,8.80
2022-12-29T01:19:03.886Z,8.76
2022-12-29T01:21:30.456Z,8.79
2022-12-29T01:23:56.819Z,8.76
2022-12-29T01:26:23.182Z,8.77
2022-12-29T01:28:51.891Z,8.94
2022-12-29T01:31:18.309Z,8.91
2022-12-29T01:33:44.718Z,8.97
2022-12-29T01:36:11.971Z,8.89
2022-12-29T01:38:38.357Z,8.98
2022-12-29T01:41:04.760Z,8.98
2022-12-29T01:43:31.130Z,8.98
2022-12-29T01:45:57.538Z,9.10
2022-12-29T01:48:23.895Z,9.05
2022-12-29T01:50:50.272Z,8.99
2022-12-29T01:53:18.456Z,9.00
2022-12-29T01:55:44.901Z,8.86
2022-12-29T01:58:11.257Z,8.93
2022-12-29T02:00:37.709Z,8.82
2022-12-29T02:03:04.145Z,9.13
2022-12-29T02:05:30.634Z,9.00
2022-12-29T02:07:57.045Z,8.86
2022-12-29T02:10:23.468Z,9.18
2022-12-29T02:12:49.882Z,9.11
2022-12-29T02:15:16.250Z,9.15
2022-12-29T02:17:42.614Z,9.22
2022-12-29T02:20:09.036Z,9.25
2022-12-29T02:22:35.416Z,9.13
2022-12-29T02:25:02.011Z,9.21
2022-12-29T02:27:28.415Z,9.29
2022-12-29T02:29:54.779Z,9.24
2022-12-29T02:32:21.182Z,9.29
2022-12-29T02:34:49.406Z,9.25
2022-12-29T02:37:15.866Z,9.33
2022-12-29T02:39:42.196Z,9.26
2022-12-29T02:42:08.609Z,9.29
2022-12-29T02:44:34.998Z,9.20
2022-12-29T02:47:01.648Z,9.28
2022-12-29T02:49:28.744Z,9.17
2022-12-29T02:51:55.474Z,9.25
2022-12-29T02:54:41.842Z,9.29
2022-12-29T02:57:09.274Z,9.22
2022-12-29T02:59:35.681Z,9.28
2022-12-29T03:02:17.682Z,9.33
2022-12-29T03:04:44.445Z,9.35
2022-12-29T03:07:10.838Z,9.38
2022-12-29T03:09:37.213Z,9.40
2022-12-29T03:12:09.580Z,9.44
2022-12-29T03:14:54.839Z,9.36
2022-12-29T03:17:21.331Z,9.23
2022-12-29T03:19:48.151Z,9.42
2022-12-29T03:22:31.919Z,9.41
2022-12-29T03:25:05.695Z,9.38
2022-12-29T03:27:32.111Z,9.40
2022-12-29T03:29:58.957Z,9.42
2022-12-29T03:32:25.778Z,9.41
2022-12-29T03:34:53.269Z,9.52
2022-12-29T03:37:19.687Z,9.30
2022-12-29T03:39:46.100Z,9.43
2022-12-29T03:42:12.486Z,9.36
2022-12-29T03:44:40.087Z,9.27
2022-12-29T03:47:07.506Z,9.39
2022-12-29T03:49:34.127Z,9.43
2022-12-29T03:52:03.465Z,9.34
2022-12-29T03:54:30.911Z,9.34
2022-12-29T03:56:58.256Z,9.32
2022-12-29T03:59:36.791Z,9.32
2022-12-29T04:02:04.510Z,9.29
2022-12-29T04:04:31.675Z,9.18
2022-12-29T04:06:58.051Z,9.26
2022-12-29T04:09:24.400Z,9.20
2022-12-29T04:11:52.130Z,9.13
2022-12-29T04:14:19.748Z,9.21
2022-12-29T04:16:46.213Z,9.16
2022-12-29T04:19:12.595Z,9.25
2022-12-29T04:21:39.000Z,9.21
2022-12-29T04:24:07.518Z,9.23
2022-12-29T04:26:38.264Z,9.25
2022-12-29T04:29:24.634Z,9.04
2022-12-29T04:32:04.020Z,8.95
2022-12-29T04:34:32.786Z,9.17
2022-12-29T04:37:00.327Z,9.18
2022-12-29T04:39:27.944Z,9.34
2022-12-29T04:41:54.448Z,9.42
2022-12-29T04:44:21.823Z,9.48
2022-12-29T04:47:01.180Z,9.51
2022-12-29T04:49:56.635Z,9.39
2022-12-29T04:52:43.304Z,9.42
2022-12-29T04:55:11.304Z,9.42
2022-12-29T04:57:37.954Z,9.40
2022-12-29T05:00:05.032Z,9.34
2022-12-29T05:02:31.627Z,9.32
2022-12-29T05:04:59.144Z,9.36
2022-12-29T05:07:26.441Z,9.29
2022-12-29T05:09:54.433Z,9.14
2022-12-29T05:12:20.833Z,9.15
2022-12-29T05:14:58.128Z,9.27
2022-12-29T05:17:24.678Z,9.29
2022-12-29T05:19:51.089Z,9.25
2022-12-29T05:22:18.224Z,9.25
2022-12-29T05:24:45.310Z,9.19
2022-12-29T05:27:11.917Z,9.13
2022-12-29T05:29:49.100Z,9.10
2022-12-29T05:32:15.509Z,9.19
2022-12-29T05:34:42.786Z,9.27
2022-12-29T05:37:09.348Z,9.19
2022-12-29T05:39:35.712Z,9.26
2022-12-29T05:42:04.567Z,9.23
2022-12-29T05:44:54.694Z,9.26
2022-12-29T05:47:25.372Z,9.26
2022-12-29T05:50:08.366Z,9.25
2022-12-29T05:52:53.030Z,9.09
2022-12-29T05:55:20.247Z,9.08
2022-12-29T05:57:48.503Z,9.08
2022-12-29T06:00:16.140Z,9.07
2022-12-29T06:02:44.754Z,8.97
2022-12-29T06:05:11.594Z,9.13
2022-12-29T06:07:39.343Z,9.16
2022-12-29T06:10:05.924Z,9.24
2022-12-29T06:12:38.739Z,9.22
2022-12-29T06:15:05.143Z,9.27
2022-12-29T06:17:31.989Z,9.29
2022-12-29T06:19:58.531Z,9.41
2022-12-29T06:22:25.638Z,9.46
2022-12-29T06:24:53.351Z,9.45
2022-12-29T06:27:19.842Z,9.45
2022-12-29T06:29:47.855Z,9.60
2022-12-29T06:32:14.271Z,9.56
2022-12-29T06:34:46.725Z,9.61
2022-12-29T06:37:14.143Z,9.41
2022-12-29T06:39:40.510Z,9.51
2022-12-29T06:42:10.826Z,9.62
2022-12-29T06:44:45.471Z,9.48
2022-12-29T06:47:11.842Z,9.54
2022-12-29T06:49:38.188Z,9.60
2022-12-29T06:52:12.243Z,9.56
2022-12-29T06:54:39.081Z,9.58
2022-12-29T06:57:05.458Z,9.59
2022-12-29T06:59:31.796Z,9.46
2022-12-29T07:01:58.370Z,9.42
2022-12-29T07:04:24.824Z,9.42
2022-12-29T07:06:51.187Z,9.42
2022-12-29T07:09:17.558Z,9.23
2022-12-29T07:11:43.896Z,9.05
2022-12-29T07:14:10.248Z,9.26
2022-12-29T07:16:36.710Z,9.28
2022-12-29T07:19:03.080Z,9.41
2022-12-29T07:21:29.483Z,9.24
2022-12-29T07:23:55.787Z,9.40
2022-12-29T07:26:22.304Z,9.36
2022-12-29T07:28:48.716Z,9.28
2022-12-29T07:31:15.500Z,9.23
2022-12-29T07:33:41.907Z,9.15
2022-12-29T07:36:08.270Z,9.18
2022-12-29T07:38:34.624Z,9.27
2022-12-29T07:41:00.990Z,9.21
2022-12-29T07:43:27.385Z,9.46
2022-12-29T07:46:18.949Z,9.49
2022-12-29T07:48:58.394Z,9.57
2022-12-29T07:51:24.757Z,9.57
2022-12-29T07:53:51.101Z,9.68
2022-12-29T07:56:17.498Z,9.70
2022-12-29T07:58:43.916Z,9.70
2022-12-29T08:01:10.349Z,9.62
2022-12-29T08:03:37.498Z,9.66
2022-12-29T08:06:04.010Z,9.59
2022-12-29T08:08:30.340Z,9.53
2022-12-29T08:10:56.711Z,9.61
2022-12-29T08:13:23.055Z,9.51
2022-12-29T08:15:49.491Z,9.45
2022-12-29T08:18:15.847Z,9.54
2022-12-29T08:20:42.220Z,9.54
2022-12-29T08:23:08.563Z,9.53
2022-12-29T08:25:34.950Z,9.67
2022-12-29T08:28:01.279Z,9.58
2022-12-29T08:30:27.677Z,9.76
2022-12-29T08:32:56.839Z,9.76
2022-12-29T08:35:23.221Z,9.76
2022-12-29T08:37:49.588Z,9.71
2022-12-29T08:40:15.979Z,9.56
2022-12-29T08:42:42.338Z,9.68
2022-12-29T08:45:09.671Z,9.75
2022-12-29T08:47:36.041Z,9.77
2022-12-29T08:50:02.409Z,9.80
2022-12-29T08:52:28.794Z,9.78
2022-12-29T08:54:55.228Z,9.91
2022-12-29T08:57:21.681Z,9.95
2022-12-29T08:59:59.428Z,10.01
2022-12-29T09:02:25.926Z,10.09
2022-12-29T09:04:53.129Z,10.29
2022-12-29T09:07:19.540Z,10.31
2022-12-29T09:09:45.905Z,10.22
2022-12-29T09:12:12.281Z,10.26
2022-12-29T09:14:38.627Z,10.27
2022-12-29T09:17:24.025Z,10.24
2022-12-29T09:19:50.385Z,10.26
2022-12-29T09:22:16.756Z,10.28
2022-12-29T09:24:43.122Z,10.32
2022-12-29T09:27:09.762Z,10.38
2022-12-29T09:29:36.088Z,10.27
2022-12-29T09:32:05.770Z,10.34
2022-12-29T09:34:34.180Z,10.34
2022-12-29T09:37:00.557Z,10.33
2022-12-29T09:39:26.917Z,10.33
2022-12-29T09:41:53.280Z,10.49
2022-12-29T09:44:19.640Z,10.47
2022-12-29T09:46:46.308Z,10.41
2022-12-29T09:49:12.796Z,10.52
2022-12-29T09:51:39.209Z,10.61
2022-12-29T09:54:05.619Z,10.74
2022-12-29T09:56:32.092Z,10.72
2022-12-29T09:58:58.429Z,10.59
2022-12-29T10:01:24.912Z,10.64
2022-12-29T10:03:51.432Z,10.86
2022-12-29T10:06:17.789Z,11.07
2022-12-29T10:08:44.180Z,11.08
2022-12-29T10:11:13.674Z,11.15
2022-12-29T10:13:40.118Z,11.30
2022-12-29T10:16:06.523Z,11.52
2022-12-29T10:18:33.191Z,11.71
2022-12-29T10:21:00.219Z,11.72
2022-12-29T10:23:26.623Z,11.53
2022-12-29T10:25:53.087Z,11.76
2022-12-29T10:28:19.470Z,12.25
2022-12-29T10:30:45.903Z,11.99
2022-12-29T10:33:12.689Z,12.24
2022-12-29T10:35:40.090Z,12.08
2022-12-29T10:38:06.458Z,12.30
2022-12-29T10:40:32.886Z,12.60
2022-12-29T10:42:59.239Z,12.39
2022-12-29T10:45:25.668Z,12.17
2022-12-29T10:47:52.503Z,12.07
2022-12-29T10:50:18.945Z,12.16
2022-12-29T10:52:45.281Z,11.64
2022-12-29T10:55:11.697Z,11.54
2022-12-29T10:57:38.081Z,11.25
2022-12-29T11:02:58.103Z,11.06
2022-12-29T11:05:24.593Z,11.13
2022-12-29T11:07:51.177Z,11.15
2022-12-29T11:10:17.586Z,11.11
2022-12-29T11:12:44.013Z,11.08
2022-12-29T11:15:10.441Z,11.12
2022-12-29T11:17:36.782Z,11.03
2022-12-29T11:20:03.203Z,11.07
2022-12-29T11:22:29.804Z,11.01
2022-12-29T11:24:56.450Z,10.93
2022-12-29T11:27:23.882Z,10.86
2022-12-29T11:29:50.619Z,10.87
2022-12-29T11:32:17.036Z,10.91
2022-12-29T11:34:43.527Z,10.94
2022-12-29T11:37:09.997Z,10.96
2022-12-29T11:39:36.401Z,10.98
2022-12-29T11:42:03.674Z,11.02
2022-12-29T11:44:29.992Z,11.08
2022-12-29T11:46:56.584Z,11.19
2022-12-29T11:49:22.909Z,11.07
2022-12-29T11:51:50.572Z,11.06
2022-12-29T11:54:16.879Z,11.04
2022-12-29T11:56:43.256Z,11.08
2022-12-29T11:59:09.587Z,11.18
2022-12-29T12:01:36.196Z,11.26
2022-12-29T12:04:02.677Z,11.25
2022-12-29T12:06:29.082Z,11.40
2022-12-29T12:08:55.596Z,11.41
2022-12-29T12:11:22.078Z,11.36
2022-12-29T12:13:49.713Z,11.28
2022-12-29T12:16:17.571Z,11.29
2022-12-29T12:18:45.867Z,11.35
2022-12-29T12:21:15.330Z,11.36
2022-12-29T12:23:41.721Z,11.42
2022-12-29T12:26:08.092Z,11.38
2022-12-29T12:28:36.862Z,11.30
2022-12-29T12:31:04.724Z,11.48
2022-12-29T12:33:31.375Z,11.48
2022-12-29T12:36:00.716Z,11.43
2022-12-29T12:38:27.164Z,11.45
2022-12-29T12:40:53.654Z,11.48
2022-12-29T12:43:20.219Z,11.59
2022-12-29T12:45:46.631Z,11.50
2022-12-29T12:48:13.047Z,11.53
2022-12-29T12:50:39.524Z,11.67
2022-12-29T12:53:06.045Z,11.48
2022-12-29T12:55:32.518Z,11.54
2022-12-29T12:57:58.883Z,11.58
2022-12-29T13:00:25.305Z,11.55
2022-12-29T13:02:51.894Z,11.60
2022-12-29T13:05:24.303Z,11.64
2022-12-29T13:07:52.744Z,11.71
2022-12-29T13:10:19.145Z,11.74
2022-12-29T13:12:45.631Z,11.60
2022-12-29T13:15:14.844Z,11.62
2022-12-29T13:17:41.314Z,11.63
2022-12-29T13:20:11.107Z,11.58
2022-12-29T13:22:37.998Z,11.60
2022-12-29T13:25:04.362Z,11.66
2022-12-29T13:27:36.918Z,11.52
2022-12-29T13:30:03.907Z,11.67
2022-12-29T13:32:30.401Z,11.62
2022-12-29T13:34:56.783Z,11.56
2022-12-29T13:37:23.231Z,11.56
2022-12-29T13:39:49.778Z,11.58
2022-12-29T13:42:16.329Z,11.53
2022-12-29T13:44:42.749Z,11.54
2022-12-29T13:47:09.126Z,11.45
2022-12-29T13:49:35.680Z,11.42
2022-12-29T13:52:02.047Z,11.31
2022-12-29T13:54:28.468Z,11.30
2022-12-29T13:56:54.899Z,11.36
2022-12-29T13:59:21.297Z,11.33
2022-12-29T14:01:47.971Z,11.32
2022-12-29T14:04:14.886Z,11.35
2022-12-29T14:06:41.906Z,11.29
2022-12-29T14:09:08.414Z,11.13
2022-12-29T14:11:34.805Z,10.92
2022-12-29T14:14:03.304Z,10.63
2022-12-29T14:16:29.734Z,10.50
2022-12-29T14:18:58.185Z,10.46
2022-12-29T14:21:28.822Z,10.24
2022-12-29T14:23:55.181Z,10.23
2022-12-29T14:26:21.625Z,10.16
2022-12-29T14:28:48.178Z,10.25
2022-12-29T14:31:16.811Z,10.30
2022-12-29T14:33:43.212Z,10.27
2022-12-29T14:36:09.651Z,10.25
2022-12-29T14:38:36.085Z,10.28
2022-12-29T14:41:06.243Z,10.29
2022-12-29T14:43:35.397Z,10.32
2022-12-29T14:46:01.834Z,10.25
2022-12-29T14:48:28.269Z,10.26
2022-12-29T14:50:54.744Z,10.33
2022-12-29T14:53:21.086Z,10.27
2022-12-29T14:55:47.845Z,10.21
2022-12-29T14:58:14.278Z,10.12
2022-12-29T15:00:40.699Z,10.17
2022-12-29T15:03:07.208Z,10.09
2022-12-29T15:05:33.700Z,10.00
2022-12-29T15:08:00.133Z,10.00
2022-12-29T15:10:26.644Z,9.94
2022-12-29T15:12:53.557Z,9.91
2022-12-29T15:15:20.186Z,9.99
2022-12-29T15:17:46.651Z,9.94
2022-12-29T15:20:13.303Z,9.86
2022-12-29T15:22:39.671Z,9.80
2022-12-29T15:25:06.169Z,9.86
2022-12-29T15:27:32.553Z,9.71
2022-12-29T15:29:59.028Z,9.72
2022-12-29T15:32:25.623Z,9.66
2022-12-29T15:34:52.097Z,9.69
2022-12-29T15:37:18.510Z,9.67
2022-12-29T15:39:44.974Z,9.64
2022-12-29T15:42:11.375Z,9.63
2022-12-29T15:44:38.413Z,9.52
2022-12-29T15:47:04.827Z,9.54
2022-12-29T15:49:32.631Z,9.59
2022-12-29T15:52:05.021Z,9.45
2022-12-29T15:54:31.467Z,9.39
2022-12-29T15:56:57.869Z,9.45
2022-12-29T15:59:24.225Z,9.44
2022-12-29T16:01:50.720Z,9.46
2022-12-29T16:04:17.361Z,9.39
2022-12-29T16:06:43.735Z,9.36
2022-12-29T16:09:10.163Z,9.50
2022-12-29T16:11:36.579Z,9.54
2022-12-29T16:14:03.964Z,9.36
2022-12-29T16:16:30.404Z,9.45
2022-12-29T16:18:57.960Z,9.33
2022-12-29T16:21:25.002Z,9.40
2022-12-29T16:23:51.420Z,9.40
2022-12-29T16:26:18.693Z,9.42
2022-12-29T16:28:45.211Z,9.39
2022-12-29T16:31:11.628Z,9.44
2022-12-29T16:33:38.130Z,9.43
2022-12-29T16:36:04.981Z,9.28
2022-12-29T16:38:31.363Z,9.33
2022-12-29T16:40:57.837Z,9.28
2022-12-29T16:43:24.199Z,9.23
2022-12-29T16:45:50.774Z,9.23
2022-12-29T16:48:17.178Z,8.97
2022-12-29T16:50:43.555Z,8.79
2022-12-29T16:53:09.922Z,9.05
2022-12-29T16:55:36.286Z,8.86
2022-12-29T16:58:02.796Z,8.97
2022-12-29T17:00:29.155Z,8.79
2022-12-29T17:02:55.675Z,9.02
2022-12-29T17:05:22.148Z,9.21
2022-12-29T17:07:48.498Z,9.16
2022-12-29T17:10:15.755Z,9.31
2022-12-29T17:12:42.134Z,9.22
2022-12-29T17:15:13.687Z,9.37
2022-12-29T17:17:40.296Z,9.39
2022-12-29T17:20:06.750Z,8.76
2022-12-29T17:22:33.147Z,9.04
2022-12-29T17:24:59.598Z,9.12
2022-12-29T17:27:25.953Z,9.01
2022-12-29T17:29:52.351Z,8.94
2022-12-29T17:32:18.756Z,8.65
2022-12-29T17:34:46.284Z,8.82
2022-12-29T17:37:12.665Z,8.76
2022-12-29T17:39:39.195Z,8.76
2022-12-29T17:42:05.911Z,8.75
2022-12-29T17:44:32.363Z,8.85
2022-12-29T17:47:01.551Z,8.79
2022-12-29T17:49:27.892Z,8.88
2022-12-29T17:51:54.590Z,8.87
2022-12-29T17:54:21.286Z,8.99
2022-12-29T17:56:47.663Z,8.86
2022-12-29T17:59:14.285Z,9.01
2022-12-29T18:01:45.300Z,9.04
2022-12-29T18:04:11.992Z,9.16
2022-12-29T18:06:38.461Z,9.20
2022-12-29T18:09:08.534Z,9.37
2022-12-29T18:11:34.922Z,9.13
2022-12-29T18:14:01.250Z,9.25
2022-12-29T18:16:27.845Z,9.36
2022-12-29T18:18:54.297Z,9.29
2022-12-29T18:21:20.904Z,9.39
2022-12-29T18:23:47.314Z,9.27
2022-12-29T18:26:15.431Z,9.33
2022-12-29T18:28:41.914Z,9.26
2022-12-29T18:31:08.293Z,9.17
2022-12-29T18:33:34.659Z,9.27
2022-12-29T18:36:01.036Z,9.39
2022-12-29T18:38:27.355Z,9.41
2022-12-29T18:40:53.757Z,9.29
2022-12-29T18:43:20.183Z,9.24
2022-12-29T18:45:46.603Z,9.27
2022-12-29T18:48:12.990Z,9.22
2022-12-29T18:50:39.364Z,9.26
2022-12-29T18:53:05.903Z,9.15
2022-12-29T18:55:32.279Z,9.15
2022-12-29T18:57:58.638Z,9.12
2022-12-29T19:00:25.045Z,9.09
2022-12-29T19:02:51.434Z,9.22
2022-12-29T19:05:18.064Z,9.14
2022-12-29T19:07:44.406Z,9.12
2022-12-29T19:10:10.751Z,9.10
2022-12-29T19:12:40.167Z,9.07
2022-12-29T19:15:07.188Z,9.05
2022-12-29T19:17:33.591Z,9.01
2022-12-29T19:19:59.971Z,8.91
2022-12-29T19:22:26.396Z,8.99
2022-12-29T19:24:59.620Z,8.78
2022-12-29T19:27:26.340Z,8.79
2022-12-29T19:29:52.761Z,8.72
2022-12-29T19:32:19.142Z,8.69
2022-12-29T19:34:48.855Z,8.64
2022-12-29T19:37:15.372Z,8.61
2022-12-29T19:39:41.759Z,8.63
2022-12-29T19:42:08.165Z,8.63
2022-12-29T19:44:34.539Z,8.43
2022-12-29T19:47:00.944Z,8.32
2022-12-29T19:49:27.350Z,8.48
2022-12-29T19:51:54.019Z,8.43
2022-12-29T19:54:20.632Z,8.38
2022-12-29T19:56:47.270Z,8.36
2022-12-29T19:59:14.053Z,8.36
2022-12-29T20:01:40.657Z,8.38
2022-12-29T20:04:07.432Z,8.20
2022-12-29T20:06:34.436Z,8.22
2022-12-29T20:09:01.137Z,8.29
2022-12-29T20:11:27.770Z,8.17
2022-12-29T20:13:54.690Z,7.92
2022-12-29T20:16:21.494Z,8.00
2022-12-29T20:18:48.107Z,8.07
2022-12-29T20:21:14.907Z,7.91
2022-12-29T20:23:41.366Z,7.92
2022-12-29T20:26:10.928Z,7.97
2022-12-29T20:28:37.309Z,7.93
2022-12-29T20:31:03.707Z,7.89
2022-12-29T20:33:30.092Z,7.78
2022-12-29T20:35:56.458Z,7.89
2022-12-29T20:38:22.840Z,7.92
2022-12-29T20:40:49.286Z,8.01
2022-12-29T20:43:16.207Z,8.02
2022-12-29T20:45:42.681Z,8.03
2022-12-29T20:48:11.279Z,7.86
2022-12-29T20:50:37.685Z,8.06
2022-12-29T20:53:04.103Z,8.09
2022-12-29T20:55:30.618Z,7.98
2022-12-29T20:58:23.023Z,7.90
2022-12-29T21:00:44.365Z,8.02
2022-12-29T21:03:10.772Z,8.05
2022-12-29T21:05:37.310Z,7.91
2022-12-29T21:08:03.675Z,8.01
2022-12-29T21:10:30.060Z,8.09
2022-12-29T21:12:56.410Z,7.98
2022-12-29T21:15:22.913Z,8.00
2022-12-29T21:17:49.440Z,8.09
2022-12-29T21:20:29.745Z,8.04
2022-12-29T21:22:56.155Z,8.03
2022-12-29T21:25:22.577Z,7.85
2022-12-29T21:27:48.956Z,7.78
2022-12-29T21:30:15.369Z,7.84
2022-12-29T21:32:41.959Z,7.88
2022-12-29T21:35:08.347Z,7.92
2022-12-29T21:37:34.725Z,7.84
2022-12-29T21:40:01.130Z,7.91
2022-12-29T21:42:27.723Z,7.99
2022-12-29T21:45:18.289Z,7.96
2022-12-29T21:48:05.434Z,7.88
2022-12-29T21:50:31.830Z,7.90
2022-12-29T21:52:58.151Z,7.75
2022-12-29T21:55:24.537Z,7.76
2022-12-29T21:58:09.636Z,7.81
2022-12-29T22:00:54.646Z,7.76
2022-12-29T22:03:39.569Z,7.76
2022-12-29T22:06:24.419Z,7.73
2022-12-29T22:09:12.845Z,7.84
2022-12-29T22:11:58.036Z,7.64
2022-12-29T22:14:24.361Z,7.68
2022-12-29T22:16:50.831Z,7.66
2022-12-29T22:19:17.296Z,7.51
2022-12-29T22:21:43.977Z,7.66
2022-12-29T22:24:10.378Z,7.86
2022-12-29T22:26:36.764Z,8.13
2022-12-29T22:29:03.167Z,8.04
2022-12-29T22:31:29.863Z,8.05
2022-12-29T22:33:56.517Z,8.07
2022-12-29T22:36:23.032Z,7.96
2022-12-29T22:38:49.374Z,7.92
2022-12-29T22:41:15.770Z,7.65
2022-12-29T22:43:42.154Z,7.80
2022-12-29T22:46:08.640Z,7.71
2022-12-29T22:48:34.974Z,7.81
2022-12-29T22:51:01.408Z,7.76
2022-12-29T22:53:27.741Z,7.89
2022-12-29T22:55:54.109Z,7.67
2022-12-29T22:58:20.507Z,7.65
2022-12-29T23:00:46.918Z,7.78
2022-12-29T23:03:13.528Z,7.77
2022-12-29T23:05:40.024Z,7.76
2022-12-29T23:08:06.341Z,7.71
2022-12-29T23:10:33.109Z,7.58
2022-12-29T23:12:59.421Z,7.63
2022-12-29T23:15:27.825Z,7.55
2022-12-29T23:17:54.163Z,7.61
2022-12-29T23:20:20.568Z,7.69
2022-12-29T23:22:46.915Z,7.70
2022-12-29T23:25:13.252Z,7.80
2022-12-29T23:27:39.647Z,7.82
2022-12-29T23:30:06.056Z,7.79
2022-12-29T23:32:32.425Z,7.82
2022-12-29T23:34:58.766Z,7.76
2022-12-29T23:37:25.191Z,7.80
2022-12-29T23:39:51.569Z,7.81
2022-12-29T23:42:17.945Z,7.78
2022-12-29T23:44:44.292Z,7.81
2022-12-29T23:47:10.666Z,7.57
2022-12-29T23:49:37.055Z,7.80
2022-12-29T23:52:03.653Z,7.77
2022-12-29T23:54:30.003Z,7.93
2022-12-29T23:56:56.402Z,7.71
2022-12-29T23:59:22.876Z,7.87
